.
WxDataArchive / Data Records for 2006-12-11
2006-12-10 December 2006 2006-12-12

Data Records for Monday, 11 December 2006

Time	Temp	Chill	HIndex	Humid	Dewpt	 Wind 	HiWind	WindDir	Rain 	Barom 
-----	----	-----	------	-----	-----	------	------	-------	-----	----- 
00:00	43.6	43.6	43.6	35	17.8	2	4	248	0.00	30.234 
00:05	43.6	43.6	43.6	34	17.1	2	6	248	0.00	30.234 
00:10	43.8	43.8	43.8	33	16.6	3	7	248	0.00	30.234 
00:15	43.8	43.8	43.8	34	17.3	3	10	248	0.00	30.233 
00:20	43.8	41.7	43.8	34	17.3	4	10	248	0.00	30.233 
00:25	43.8	41.7	43.8	33	16.6	4	11	248	0.00	30.233 
00:30	43.8	43.8	43.8	34	17.3	3	7	248	0.00	30.235 
00:35	43.8	41.7	43.8	33	16.6	4	11	248	0.00	30.235 
00:40	43.8	43.8	43.8	33	16.6	3	9	248	0.00	30.235 
00:45	43.8	43.8	43.8	34	17.3	3	7	248	0.00	30.231 
00:50	43.8	43.8	43.8	34	17.3	3	10	248	0.00	30.231 
00:55	43.8	43.8	43.8	34	17.3	3	8	270	0.00	30.231 
01:00	43.8	43.8	43.8	35	18.0	3	9	248	0.00	30.239 
01:05	43.8	41.7	43.8	34	17.3	4	13	248	0.00	30.239 
01:10	43.8	43.8	43.8	35	18.0	3	7	248	0.00	30.239 
01:15	43.8	41.7	43.8	35	18.0	4	10	248	0.00	30.239 
01:20	43.9	41.8	43.9	35	18.0	4	11	248	0.00	30.239 
01:25	43.8	41.7	43.8	35	18.0	4	7	248	0.00	30.239 
01:30	43.8	43.8	43.8	35	18.0	3	7	248	0.00	30.239 
01:35	43.8	43.8	43.8	36	18.6	3	6	248	0.00	30.239 
01:40	43.9	43.9	43.9	36	18.7	3	7	248	0.00	30.239 
01:45	43.9	43.9	43.9	36	18.7	3	6	248	0.00	30.241 
01:50	43.9	43.9	43.9	36	18.7	3	9	248	0.00	30.241 
01:55	43.9	41.8	43.9	36	18.7	4	9	248	0.00	30.241 
02:00	43.9	43.9	43.9	36	18.7	3	9	248	0.00	30.243 
02:05	44.1	44.1	44.1	36	18.9	3	6	248	0.00	30.243 
02:10	44.1	44.1	44.1	37	19.5	3	7	248	0.00	30.243 
02:15	44.2	44.2	44.2	38	20.2	3	7	248	0.00	30.253 
02:20	44.2	44.2	44.2	38	20.2	3	7	248	0.00	30.253 
02:25	44.2	44.2	44.2	38	20.2	2	6	248	0.00	30.253 
02:30	44.2	44.2	44.2	39	20.8	3	7	248	0.00	30.254 
02:35	44.2	44.2	44.2	39	20.8	2	6	248	0.00	30.254 
02:40	44.2	44.2	44.2	39	20.8	2	6	248	0.00	30.254 
02:45	44.3	44.3	44.3	38	20.3	3	11	248	0.00	30.259 
02:50	44.3	44.3	44.3	38	20.3	2	5	248	0.00	30.259 
02:55	44.3	44.3	44.3	36	19.0	3	7	248	0.00	30.259 
03:00	44.3	44.3	44.3	36	19.0	2	5	248	0.00	30.267 
03:05	44.5	44.5	44.5	35	18.6	3	6	248	0.00	30.267 
03:10	44.5	44.5	44.5	35	18.6	2	6	248	0.00	30.267 
03:15	44.5	44.5	44.5	35	18.6	2	4	248	0.00	30.274 
03:20	44.5	44.5	44.5	35	18.6	2	5	248	0.00	30.274 
03:25	44.5	44.5	44.5	34	17.9	2	5	248	0.00	30.274 
03:30	44.5	44.5	44.5	34	17.9	2	5	248	0.00	30.275 
03:35	44.5	44.5	44.5	34	17.9	2	6	248	0.00	30.275 
03:40	44.5	44.5	44.5	34	17.9	2	5	248	0.00	30.275 
03:45	44.5	44.5	44.5	34	17.9	2	6	248	0.00	30.276 
03:50	44.3	44.3	44.3	36	19.0	2	4	248	0.00	30.276 
03:55	44.3	44.3	44.3	37	19.7	2	6	248	0.00	30.276 
04:00	44.3	44.3	44.3	36	19.0	3	9	248	0.00	30.281 
04:05	44.3	44.3	44.3	36	19.0	2	5	248	0.00	30.281 
04:10	44.5	44.5	44.5	37	19.9	1	5	248	0.00	30.281 
04:15	44.5	44.5	44.5	36	19.2	2	7	248	0.00	30.277 
04:20	44.5	44.5	44.5	39	21.1	2	6	248	0.00	30.277 
04:25	43.9	43.9	43.9	46	24.5	3	9	248	0.00	30.277 
04:30	43.3	43.3	43.3	47	24.4	2	5	248	0.00	30.274 
04:35	43.2	43.2	43.2	48	24.9	1	5	248	0.00	30.274 
04:40	43.1	43.1	43.1	47	24.3	0	3	248	0.00	30.274 
04:45	43.1	43.1	43.1	47	24.3	1	3	248	0.00	30.276 
04:50	43.1	43.1	43.1	46	23.7	1	4	248	0.00	30.276 
04:55	43.1	43.1	43.1	44	22.7	1	4	248	0.00	30.276 
05:00	43.1	43.1	43.1	43	22.1	1	3	248	0.00	30.278 
05:05	43.1	43.1	43.1	42	21.6	1	3	248	0.00	30.278 
05:10	42.9	42.9	42.9	42	21.4	0	1	248	0.00	30.278 
05:15	42.9	42.9	42.9	41	20.8	0	2	248	0.00	30.281 
05:20	42.9	42.9	42.9	40	20.3	1	3	248	0.00	30.281 
05:25	43.1	43.1	43.1	39	19.8	1	3	248	0.00	30.281 
05:30	43.1	43.1	43.1	38	19.2	0	2	248	0.00	30.287 
05:35	43.1	43.1	43.1	38	19.2	0	2	248	0.00	30.287 
05:40	43.2	43.2	43.2	37	18.7	0	2	248	0.00	30.287 
05:45	43.3	43.3	43.3	37	18.8	1	2	248	0.00	30.291 
05:50	43.3	43.3	43.3	37	18.8	1	4	248	0.00	30.291 
05:55	43.3	43.3	43.3	37	18.8	0	2	225	0.00	30.291 
06:00	43.3	43.3	43.3	37	18.8	1	3	270	0.00	30.293 
06:05	43.5	43.5	43.5	36	18.3	1	4	248	0.00	30.293 
06:10	43.3	43.3	43.3	38	19.4	0	2	248	0.00	30.293 
06:15	43.3	43.3	43.3	39	20.0	0	2	225	0.00	30.293 
06:20	43.2	43.2	43.2	39	19.9	0	1	225	0.00	30.293 
06:25	43.1	43.1	43.1	39	19.8	0	1	225	0.00	30.293 
06:30	43.1	43.1	43.1	39	19.8	0	1	225	0.00	30.294 
06:35	43.1	43.1	43.1	38	19.2	0	2	225	0.00	30.294 
06:40	43.1	43.1	43.1	39	19.8	0	1	225	0.00	30.294 
06:45	42.9	42.9	42.9	39	19.7	0	1	225	0.00	30.293 
06:50	42.9	42.9	42.9	39	19.7	0	1	225	0.00	30.293 
06:55	42.8	42.8	42.8	39	19.6	0	1	225	0.00	30.293 
07:00	42.8	42.8	42.8	39	19.6	0	1	225	0.00	30.295 
07:05	42.8	42.8	42.8	40	20.2	0	1	225	0.00	30.295 
07:10	42.6	42.6	42.6	40	20.0	0	2	225	0.00	30.295 
07:15	42.5	42.5	42.5	41	20.5	0	2	225	0.00	30.296 
07:20	42.5	42.5	42.5	43	21.6	0	2	180	0.00	30.296 
07:25	42.3	42.3	42.3	43	21.4	0	1	180	0.00	30.296 
07:30	42.1	42.1	42.1	43	21.2	0	1	180	0.00	30.305 
07:35	41.9	41.9	41.9	44	21.6	0	1	180	0.00	30.305 
07:40	41.9	41.9	41.9	43	21.1	0	1	180	0.00	30.305 
07:45	41.8	41.8	41.8	42	20.4	0	2	158	0.00	30.304 
07:50	41.9	41.9	41.9	43	21.1	0	1	158	0.00	30.304 
07:55	41.9	41.9	41.9	43	21.1	0	1	158	0.00	30.304 
08:00	41.8	41.8	41.8	44	21.5	0	1	158	0.00	30.307 
08:05	41.6	41.6	41.6	43	20.8	0	1	158	0.00	30.307 
08:10	41.6	41.6	41.6	42	20.2	0	1	158	0.00	30.307 
08:15	41.6	41.6	41.6	43	20.8	0	1	158	0.00	30.304 
08:20	41.5	41.5	41.5	44	21.2	0	0	---	0.00	30.304 
08:25	41.3	41.3	41.3	43	20.5	0	0	---	0.00	30.304 
08:30	41.2	41.2	41.2	43	20.4	0	1	158	0.00	30.309 
08:35	41.2	41.2	41.2	43	20.4	0	1	158	0.00	30.309 
08:40	41.1	41.1	41.1	44	20.9	0	0	---	0.00	30.309 
08:45	40.9	40.9	40.9	45	21.2	0	1	158	0.00	30.320 
08:50	40.9	40.9	40.9	47	22.2	0	0	---	0.00	30.320 
08:55	41.2	41.2	41.2	46	22.0	0	1	158	0.00	30.320 
09:00	41.6	41.6	41.6	46	22.4	0	1	158	0.00	30.320 
09:05	42.1	42.1	42.1	46	22.8	0	2	158	0.00	30.320 
09:10	42.3	42.3	42.3	44	22.0	0	2	202	0.00	30.320 
09:15	42.6	42.6	42.6	44	22.2	0	3	202	0.00	30.325 
09:20	42.9	42.9	42.9	43	22.0	1	4	248	0.00	30.325 
09:25	43.1	43.1	43.1	42	21.6	1	4	248	0.00	30.325 
09:30	43.2	43.2	43.2	42	21.7	1	6	248	0.00	30.333 
09:35	43.3	43.3	43.3	43	22.3	1	4	270	0.00	30.333 
09:40	43.3	43.3	43.3	42	21.8	1	4	270	0.00	30.333 
09:45	43.5	43.5	43.5	43	22.5	0	3	248	0.00	30.337 
09:50	43.6	43.6	43.6	44	23.1	1	2	270	0.00	30.337 
09:55	43.8	43.8	43.8	43	22.8	0	3	248	0.00	30.337 
10:00	44.1	44.1	44.1	43	23.0	1	4	248	0.00	30.335 
10:05	44.2	44.2	44.2	40	21.4	1	4	248	0.00	30.335 
10:10	44.5	44.5	44.5	40	21.7	2	5	225	0.00	30.335 
10:15	44.6	44.6	44.6	42	22.9	0	2	248	0.00	30.338 
10:20	44.9	44.9	44.9	41	22.6	1	3	270	0.00	30.338 
10:25	45.1	45.1	45.1	41	22.8	1	3	248	0.00	30.338 
10:30	45.4	45.4	45.4	40	22.5	1	4	248	0.00	30.338 
10:35	45.8	45.8	45.8	42	24.0	1	5	248	0.00	30.338 
10:40	46.1	46.1	46.1	39	22.5	2	5	248	0.00	30.338 
10:45	46.2	46.2	46.2	39	22.6	2	5	248	0.00	30.337 
10:50	46.4	46.4	46.4	39	22.8	2	5	248	0.00	30.337 
10:55	46.5	46.5	46.5	39	22.9	2	6	248	0.00	30.337 
11:00	46.7	46.7	46.7	39	23.1	2	7	248	0.00	30.334 
11:05	47.0	47.0	47.0	41	24.5	2	6	248	0.00	30.334 
11:10	47.3	47.3	47.3	39	23.6	2	6	248	0.00	30.334 
11:15	47.6	47.6	47.6	39	23.9	2	5	270	0.00	30.321 
11:20	47.7	47.7	47.7	40	24.6	1	5	248	0.00	30.321 
11:25	47.6	47.6	47.6	39	23.9	1	4	270	0.00	30.321 
11:30	47.9	47.9	47.9	39	24.1	2	5	248	0.00	30.318 
11:35	48.2	48.2	48.2	39	24.4	2	7	248	0.00	30.318 
11:40	48.2	48.2	48.2	39	24.4	3	10	248	0.00	30.318 
11:45	48.2	48.2	48.2	39	24.4	2	7	248	0.00	30.322 
11:50	48.3	48.3	48.3	40	25.1	1	5	248	0.00	30.322 
11:55	48.3	48.3	48.3	40	25.1	1	4	270	0.00	30.322 
12:00	48.3	48.3	48.3	40	25.1	1	4	248	0.00	30.320 
12:05	48.3	48.3	48.3	40	25.1	2	6	248	0.00	30.320 
12:10	48.3	48.3	48.3	41	25.7	1	3	248	0.00	30.320 
12:15	48.5	48.5	48.5	41	25.9	1	3	248	0.00	30.312 
12:20	48.8	48.8	48.8	41	26.2	1	4	248	0.00	30.312 
12:25	49.1	49.1	49.1	42	27.0	1	3	45	0.00	30.312 
12:30	49.2	49.2	49.2	41	26.5	2	4	248	0.00	30.307 
12:35	49.2	49.2	49.2	42	27.1	2	4	248	0.00	30.307 
12:40	49.5	49.5	49.5	42	27.4	1	3	248	0.00	30.307 
12:45	49.6	49.6	49.6	43	28.0	1	3	248	0.00	30.301 
12:50	49.6	49.6	49.6	42	27.5	1	4	248	0.00	30.301 
12:55	49.6	49.6	49.6	41	26.9	1	4	248	0.00	30.301 
13:00	49.8	49.8	49.8	41	27.1	1	3	248	0.00	30.304 
13:05	49.9	49.9	49.9	43	28.3	0	3	248	0.00	30.304 
13:10	50.2	50.2	50.2	44	29.1	1	3	270	0.00	30.304 
13:15	50.8	50.8	50.8	42	28.5	1	3	248	0.00	30.302 
13:20	51.3	51.3	51.3	42	29.0	2	6	248	0.00	30.302 
13:25	51.7	51.7	51.7	43	29.9	1	2	248	0.00	30.302 
13:30	52.0	52.0	52.0	41	29.0	1	4	248	0.00	30.297 
13:35	52.0	52.0	52.0	42	29.6	1	6	112	0.00	30.297 
13:40	52.0	52.0	52.0	41	29.0	1	3	90	0.00	30.297 
13:45	52.0	52.0	52.0	42	29.6	1	2	248	0.00	30.286 
13:50	52.0	52.0	52.0	43	30.2	1	2	158	0.00	30.286 
13:55	52.2	52.2	52.2	43	30.4	0	2	248	0.00	30.286 
14:00	52.2	52.2	52.2	44	31.0	1	3	248	0.00	30.286 
14:05	52.5	52.5	52.5	43	30.7	1	6	248	0.00	30.286 
14:10	52.8	52.8	52.8	44	31.5	2	5	248	0.00	30.286 
14:15	52.8	52.8	52.8	44	31.5	1	2	158	0.00	30.285 
14:20	52.5	52.5	52.5	44	31.2	2	6	112	0.00	30.285 
14:25	52.3	52.3	52.3	45	31.6	1	3	112	0.00	30.285 
14:30	52.3	52.3	52.3	46	32.1	1	3	90	0.00	30.285 
14:35	52.6	52.6	52.6	45	31.9	1	2	135	0.00	30.285 
14:40	52.9	52.9	52.9	46	32.7	1	4	112	0.00	30.285 
14:45	53.1	53.1	53.1	45	32.3	2	4	68	0.00	30.280 
14:50	53.1	53.1	53.1	45	32.3	1	4	112	0.00	30.280 
14:55	52.6	52.6	52.6	46	32.4	1	5	248	0.00	30.280 
15:00	52.6	52.6	52.6	47	32.9	1	2	202	0.00	30.280 
15:05	52.6	52.6	52.6	47	32.9	0	2	135	0.00	30.280 
15:10	52.8	52.8	52.8	47	33.1	1	3	135	0.00	30.280 
15:15	52.9	52.9	52.9	47	33.2	1	3	112	0.00	30.283 
15:20	52.9	52.9	52.9	48	33.7	1	2	90	0.00	30.283 
15:25	52.9	52.9	52.9	46	32.7	1	2	135	0.00	30.283 
15:30	52.8	52.8	52.8	47	33.1	1	3	68	0.00	30.282 
15:35	52.8	52.8	52.8	47	33.1	1	2	90	0.00	30.282 
15:40	52.8	52.8	52.8	49	34.2	0	1	90	0.00	30.282 
15:45	52.8	52.8	52.8	48	33.7	0	2	90	0.00	30.283 
15:50	52.6	52.6	52.6	48	33.5	1	3	270	0.00	30.283 
15:55	52.5	52.5	52.5	50	34.4	1	3	112	0.00	30.283 
16:00	52.2	52.2	52.2	50	34.1	1	4	112	0.00	30.285 
16:05	52.0	52.0	52.0	51	34.4	1	3	112	0.00	30.285 
16:10	51.9	51.9	51.9	52	34.8	1	3	112	0.00	30.285 
16:15	51.7	51.7	51.7	52	34.6	1	3	135	0.00	30.289 
16:20	51.4	51.4	51.4	52	34.4	0	2	202	0.00	30.289 
16:25	51.3	51.3	51.3	52	34.3	0	1	202	0.00	30.289 
16:30	51.1	51.1	51.1	52	34.1	0	2	248	0.00	30.297 
16:35	51.0	51.0	51.0	53	34.5	0	1	248	0.00	30.297 
16:40	50.8	50.8	50.8	53	34.3	0	1	248	0.00	30.297 
16:45	50.8	50.8	50.8	52	33.8	0	2	248	0.00	30.298 
16:50	50.8	50.8	50.8	53	34.3	0	1	248	0.00	30.298 
16:55	50.7	50.7	50.7	53	34.2	0	1	248	0.00	30.298 
17:00	50.7	50.7	50.7	55	35.1	0	0	---	0.00	30.297 
17:05	50.5	50.5	50.5	57	35.8	0	0	---	0.00	30.297 
17:10	50.2	50.2	50.2	56	35.1	0	0	---	0.00	30.297 
17:15	49.9	49.9	49.9	59	36.1	0	0	---	0.00	30.299 
17:20	49.6	49.6	49.6	58	35.4	0	1	248	0.00	30.299 
17:25	49.4	49.4	49.4	58	35.2	0	0	---	0.00	30.299 
17:30	49.4	49.4	49.4	58	35.2	0	1	248	0.00	30.296 
17:35	49.2	49.2	49.2	58	35.1	0	1	248	0.00	30.296 
17:40	49.1	49.1	49.1	59	35.4	0	1	248	0.00	30.296 
17:45	49.1	49.1	49.1	59	35.4	0	1	248	0.00	30.304 
17:50	48.9	48.9	48.9	59	35.2	0	1	248	0.00	30.304 
17:55	49.1	49.1	49.1	59	35.4	0	2	248	0.00	30.304 
18:00	48.9	48.9	48.9	59	35.2	0	1	248	0.00	30.302 
18:05	48.9	48.9	48.9	59	35.2	0	1	248	0.00	30.302 
18:10	48.8	48.8	48.8	59	35.1	0	1	248	0.00	30.302 
18:15	48.8	48.8	48.8	59	35.1	0	1	248	0.00	30.303 
18:20	48.9	48.9	48.9	58	34.8	0	2	135	0.00	30.303 
18:25	48.9	48.9	48.9	58	34.8	0	1	135	0.00	30.303 
18:30	48.9	48.9	48.9	58	34.8	0	2	135	0.00	30.305 
18:35	49.1	49.1	49.1	58	35.0	0	1	135	0.00	30.305 
18:40	49.1	49.1	49.1	58	35.0	0	1	135	0.00	30.305 
18:45	49.1	49.1	49.1	58	35.0	0	1	135	0.00	30.317 
18:50	48.9	48.9	48.9	58	34.8	0	1	135	0.00	30.317 
18:55	48.9	48.9	48.9	58	34.8	0	2	135	0.00	30.317 
19:00	48.8	48.8	48.8	59	35.1	0	1	135	0.00	30.305 
19:05	48.8	48.8	48.8	59	35.1	0	2	135	0.00	30.305 
19:10	48.8	48.8	48.8	58	34.7	1	3	135	0.00	30.305 
19:15	48.6	48.6	48.6	58	34.5	1	2	112	0.00	30.306 
19:20	48.5	48.5	48.5	59	34.8	1	2	135	0.00	30.306 
19:25	48.2	48.2	48.2	59	34.6	1	2	135	0.00	30.306 
19:30	47.9	47.9	47.9	59	34.3	1	2	112	0.00	30.310 
19:35	47.6	47.6	47.6	60	34.4	0	2	112	0.00	30.310 
19:40	47.3	47.3	47.3	60	34.1	1	2	112	0.00	30.310 
19:45	47.1	47.1	47.1	60	33.9	1	3	112	0.00	30.314 
19:50	47.0	47.0	47.0	59	33.4	1	3	135	0.00	30.314 
19:55	47.0	47.0	47.0	59	33.4	1	3	135	0.00	30.314 
20:00	47.0	47.0	47.0	59	33.4	1	3	90	0.00	30.312 
20:05	46.8	46.8	46.8	58	32.8	2	3	112	0.00	30.312 
20:10	46.8	46.8	46.8	59	33.2	1	3	112	0.00	30.312 
20:15	46.7	46.7	46.7	58	32.7	1	3	112	0.00	30.310 
20:20	46.7	46.7	46.7	59	33.1	1	3	135	0.00	30.310 
20:25	46.5	46.5	46.5	59	33.0	1	3	135	0.00	30.310 
20:30	46.5	46.5	46.5	59	33.0	2	4	112	0.00	30.306 
20:35	46.5	46.5	46.5	58	32.5	1	4	112	0.00	30.306 
20:40	46.5	46.5	46.5	59	33.0	1	3	90	0.00	30.306 
20:45	46.5	46.5	46.5	59	33.0	1	5	112	0.00	30.306 
20:50	46.5	46.5	46.5	58	32.5	0	2	112	0.00	30.306 
20:55	46.7	46.7	46.7	59	33.1	1	3	135	0.00	30.306 
21:00	46.5	46.5	46.5	59	33.0	0	2	135	0.00	30.307 
21:05	46.5	46.5	46.5	59	33.0	0	2	135	0.00	30.307 
21:10	46.5	46.5	46.5	59	33.0	1	2	112	0.00	30.307 
21:15	46.5	46.5	46.5	60	33.4	1	2	112	0.00	30.305 
21:20	46.4	46.4	46.4	60	33.3	1	2	112	0.00	30.305 
21:25	46.1	46.1	46.1	61	33.4	0	2	112	0.00	30.305 
21:30	46.0	46.0	46.0	61	33.3	1	3	112	0.00	30.300 
21:35	45.8	45.8	45.8	61	33.1	1	2	112	0.00	30.300 
21:40	45.7	45.7	45.7	61	33.0	1	4	135	0.00	30.300 
21:45	45.8	45.8	45.8	61	33.1	1	3	112	0.00	30.295 
21:50	46.0	46.0	46.0	61	33.3	1	3	135	0.00	30.295 
21:55	46.0	46.0	46.0	61	33.3	1	3	112	0.00	30.295 
22:00	45.8	45.8	45.8	61	33.1	1	4	112	0.00	30.290 
22:05	45.8	45.8	45.8	62	33.5	1	4	135	0.00	30.290 
22:10	45.8	45.8	45.8	62	33.5	1	3	135	0.00	30.290 
22:15	45.7	45.7	45.7	62	33.4	1	3	135	0.00	30.285 
22:20	45.7	45.7	45.7	62	33.4	1	3	135	0.00	30.285 
22:25	45.7	45.7	45.7	62	33.4	1	4	135	0.00	30.285 
22:30	45.7	45.7	45.7	63	33.8	1	3	112	0.00	30.277 
22:35	45.5	45.5	45.5	63	33.6	1	3	112	0.00	30.277 
22:40	45.4	45.4	45.4	63	33.6	1	3	135	0.00	30.277 
22:45	45.2	45.2	45.2	63	33.4	0	1	135	0.00	30.274 
22:50	45.1	45.1	45.1	64	33.7	0	1	135	0.00	30.274 
22:55	44.8	44.8	44.8	64	33.4	0	2	112	0.00	30.274 
23:00	44.6	44.6	44.6	65	33.6	0	2	112	0.00	30.269 
23:05	44.5	44.5	44.5	65	33.5	0	1	135	0.00	30.269 
23:10	44.3	44.3	44.3	65	33.3	1	3	112	0.00	30.269 
23:15	44.3	44.3	44.3	66	33.7	0	2	112	0.00	30.265 
23:20	44.3	44.3	44.3	66	33.7	0	1	112	0.00	30.265 
23:25	44.3	44.3	44.3	66	33.7	0	2	112	0.00	30.265 
23:30	44.3	44.3	44.3	66	33.7	0	2	112	0.00	30.266 
23:35	44.5	44.5	44.5	66	33.9	1	2	112	0.00	30.266 
23:40	44.8	44.8	44.8	66	34.1	1	3	135	0.00	30.266 
23:45	44.9	44.9	44.9	66	34.2	1	2	135	0.00	30.257 
23:50	45.2	45.2	45.2	66	34.5	1	3	112	0.00	30.257 
23:55	45.5	45.5	45.5	65	34.4	1	4	112	0.00	30.257 

CoCoRaHS
IN-AL-39
A2 Web Hosting
Creative Commons License
GoDaddy
Look for:

loaded 2017-12-12 17:07:54 • last modified 2010-11-18 10:43:29
Privacy PolicyDisclaimer
• wx.awcolley.com is powered by PmWiki v.2002016 •
• all content (unless otherwise noted) © 2017 A W Colley